createdAt,value
2018-04-15T00:00:27.078Z,23.30
2018-04-15T00:02:54.661Z,22.00
2018-04-15T00:05:22.192Z,21.47
2018-04-15T00:07:49.727Z,21.37
2018-04-15T00:10:17.258Z,15.40
2018-04-15T00:12:44.869Z,12.77
2018-04-15T00:15:12.486Z,16.63
2018-04-15T00:17:40.045Z,15.37
2018-04-15T00:20:07.556Z,13.57
2018-04-15T00:22:35.809Z,14.37
2018-04-15T00:25:03.377Z,16.83
2018-04-15T00:27:30.941Z,18.80
2018-04-15T00:29:58.481Z,20.70
2018-04-15T00:32:26.339Z,17.53
2018-04-15T00:34:53.939Z,19.57
2018-04-15T00:37:21.498Z,21.00
2018-04-15T00:39:49.034Z,22.37
2018-04-15T00:42:16.690Z,22.53
2018-04-15T00:44:44.234Z,21.07
2018-04-15T00:47:11.766Z,21.03
2018-04-15T00:49:39.286Z,21.30
2018-04-15T00:52:27.880Z,20.47
2018-04-15T00:54:55.461Z,23.33
2018-04-15T00:57:23.077Z,22.30
2018-04-15T00:59:50.613Z,20.63
2018-04-15T01:02:18.138Z,21.93
2018-04-15T01:04:45.690Z,24.53
2018-04-15T01:07:13.250Z,28.93
2018-04-15T01:09:40.805Z,29.37
2018-04-15T01:12:08.368Z,28.67
2018-04-15T01:14:35.972Z,28.47
2018-04-15T01:17:03.556Z,25.00
2018-04-15T01:19:31.117Z,25.27
2018-04-15T01:21:58.669Z,23.70
2018-04-15T01:24:26.200Z,21.13
2018-04-15T01:26:53.715Z,20.83
2018-04-15T01:29:21.287Z,20.07
2018-04-15T01:31:48.787Z,17.37
2018-04-15T01:34:16.347Z,17.37
2018-04-15T01:36:43.898Z,15.83
2018-04-15T01:39:11.655Z,14.83
2018-04-15T01:41:39.186Z,15.37
2018-04-15T01:44:06.746Z,16.87
2018-04-15T01:46:34.325Z,14.50
2018-04-15T01:49:01.885Z,14.77
2018-04-15T01:51:29.399Z,14.90
2018-04-15T01:53:57.028Z,16.87
2018-04-15T01:56:24.530Z,15.93
2018-04-15T01:58:52.059Z,15.97
2018-04-15T02:01:19.587Z,18.57
2018-04-15T02:03:47.154Z,18.83
2018-04-15T02:06:14.707Z,20.20
2018-04-15T02:08:42.293Z,22.23
2018-04-15T02:11:09.846Z,20.00
2018-04-15T02:13:37.393Z,20.37
2018-04-15T02:16:04.975Z,23.13
2018-04-15T02:18:32.483Z,21.13
2018-04-15T02:21:00.035Z,18.57
2018-04-15T02:23:27.598Z,20.47
2018-04-15T02:25:55.151Z,20.87
2018-04-15T02:28:22.733Z,18.93
2018-04-15T02:30:50.286Z,20.67
2018-04-15T02:33:17.814Z,19.17
2018-04-15T02:35:45.420Z,20.90
2018-04-15T02:38:13.001Z,18.63
2018-04-15T02:40:40.547Z,19.60
2018-04-15T02:43:08.114Z,20.63
2018-04-15T02:45:35.649Z,19.47
2018-04-15T02:48:03.196Z,18.53
2018-04-15T02:50:30.752Z,19.00
2018-04-15T02:52:58.324Z,17.87
2018-04-15T02:55:25.859Z,16.47
2018-04-15T02:57:53.391Z,17.67
2018-04-15T03:00:20.967Z,16.87
2018-04-15T03:02:48.488Z,17.53
2018-04-15T03:05:16.053Z,15.70
2018-04-15T03:07:43.584Z,14.97
2018-04-15T03:10:11.161Z,16.90
2018-04-15T03:12:38.697Z,15.87
2018-04-15T03:15:06.267Z,16.53
2018-04-15T03:17:33.790Z,15.93
2018-04-15T03:20:01.390Z,16.60
2018-04-15T03:22:28.903Z,21.12
2018-04-15T03:24:56.482Z,16.93
2018-04-15T03:27:23.995Z,14.53
2018-04-15T03:29:51.530Z,14.10
2018-04-15T03:32:19.030Z,14.00
2018-04-15T03:34:46.598Z,13.67
2018-04-15T03:37:14.162Z,15.33
2018-04-15T03:39:41.674Z,15.50
2018-04-15T03:42:09.193Z,17.93
2018-04-15T03:44:36.715Z,17.97
2018-04-15T03:47:04.249Z,18.47
2018-04-15T03:49:31.777Z,20.37
2018-04-15T03:51:59.380Z,19.30
2018-04-15T03:54:26.909Z,20.53
2018-04-15T03:56:54.458Z,21.30
2018-04-15T03:59:21.945Z,21.93
2018-04-15T04:01:49.490Z,22.83
2018-04-15T04:04:17.074Z,21.80
2018-04-15T04:06:44.603Z,23.27
2018-04-15T04:09:12.107Z,23.97
2018-04-15T04:11:39.664Z,24.20
2018-04-15T04:14:07.170Z,25.80
2018-04-15T04:16:34.709Z,23.60
2018-04-15T04:19:14.033Z,24.40
2018-04-15T04:21:53.304Z,23.73
2018-04-15T04:24:33.373Z,19.07
2018-04-15T04:27:00.971Z,20.17
2018-04-15T04:29:28.555Z,19.17
2018-04-15T04:31:56.131Z,23.47
2018-04-15T04:34:23.692Z,22.07
2018-04-15T04:36:51.218Z,21.33
2018-04-15T04:39:18.742Z,21.73
2018-04-15T04:41:46.295Z,20.43
2018-04-15T04:44:13.804Z,23.00
2018-04-15T04:46:41.386Z,24.83
2018-04-15T04:49:08.923Z,23.13
2018-04-15T04:51:36.483Z,24.10
2018-04-15T04:54:04.038Z,23.90
2018-04-15T04:56:31.564Z,25.37
2018-04-15T04:58:59.217Z,22.93
2018-04-15T05:01:26.788Z,22.50
2018-04-15T05:03:54.333Z,21.53
2018-04-15T05:06:21.865Z,19.87
2018-04-15T05:08:49.470Z,21.67
2018-04-15T05:11:17.038Z,20.47
2018-04-15T05:13:44.600Z,19.67
2018-04-15T05:16:12.152Z,19.93
2018-04-15T05:18:39.695Z,20.43
2018-04-15T05:21:07.218Z,20.17
2018-04-15T05:23:34.785Z,18.17
2018-04-15T05:26:02.379Z,18.57
2018-04-15T05:28:29.961Z,15.97
2018-04-15T05:30:57.487Z,15.07
2018-04-15T05:33:25.030Z,13.67
2018-04-15T05:35:52.574Z,12.70
2018-04-15T05:38:20.142Z,11.80
2018-04-15T05:40:47.661Z,11.63
2018-04-15T05:43:15.214Z,11.50
2018-04-15T05:45:42.746Z,11.00
2018-04-15T05:48:10.282Z,10.97
2018-04-15T05:50:37.838Z,10.47
2018-04-15T05:53:05.422Z,10.97
2018-04-15T05:55:32.937Z,9.17
2018-04-15T05:58:00.505Z,9.90
2018-04-15T06:00:28.054Z,8.77
2018-04-15T06:02:55.627Z,9.37
2018-04-15T06:05:23.191Z,8.50
2018-04-15T06:07:50.759Z,8.33
2018-04-15T06:10:18.263Z,8.70
2018-04-15T06:12:45.835Z,7.27
2018-04-15T06:15:13.322Z,7.47
2018-04-15T06:17:40.887Z,7.70
2018-04-15T06:20:08.408Z,7.13
2018-04-15T06:22:35.990Z,6.40
2018-04-15T06:25:03.842Z,7.10
2018-04-15T06:27:31.402Z,6.50
2018-04-15T06:29:58.934Z,6.27
2018-04-15T06:32:26.469Z,6.47
2018-04-15T06:34:53.967Z,6.53
2018-04-15T06:37:27.793Z,6.00
2018-04-15T06:39:55.315Z,5.80
2018-04-15T06:42:22.839Z,5.43
2018-04-15T06:44:50.376Z,5.57
2018-04-15T06:47:17.931Z,5.10
2018-04-15T06:49:45.471Z,5.60
2018-04-15T06:52:12.995Z,4.30
2018-04-15T06:54:40.552Z,3.60
2018-04-15T06:57:08.141Z,4.53
2018-04-15T06:59:35.742Z,3.60
2018-04-15T07:02:03.305Z,3.83
2018-04-15T07:04:30.846Z,3.67
2018-04-15T07:06:58.366Z,3.63
2018-04-15T07:09:25.895Z,3.63
2018-04-15T07:11:53.442Z,4.53
2018-04-15T07:14:20.991Z,4.80
2018-04-15T07:16:48.498Z,5.07
2018-04-15T07:19:16.332Z,5.87
2018-04-15T07:21:43.947Z,5.40
2018-04-15T07:24:11.478Z,4.73
2018-04-15T07:26:39.109Z,5.13
2018-04-15T07:29:06.655Z,5.00
2018-04-15T07:31:34.185Z,4.50
2018-04-15T07:34:01.703Z,3.83
2018-04-15T07:36:29.252Z,3.37
2018-04-15T07:38:56.737Z,3.73
2018-04-15T07:41:24.242Z,4.30
2018-04-15T07:43:51.791Z,4.80
2018-04-15T07:46:19.315Z,3.70
2018-04-15T07:48:46.877Z,3.47
2018-04-15T07:51:14.430Z,4.00
2018-04-15T07:53:41.952Z,4.33
2018-04-15T07:56:09.496Z,3.70
2018-04-15T07:58:37.106Z,3.03
2018-04-15T08:01:04.598Z,3.60
2018-04-15T08:03:32.171Z,3.70
2018-04-15T08:05:59.715Z,2.93
2018-04-15T08:08:27.286Z,3.00
2018-04-15T08:10:54.814Z,2.80
2018-04-15T08:13:22.297Z,2.47
2018-04-15T08:15:49.874Z,2.23
2018-04-15T08:18:17.446Z,2.70
2018-04-15T08:20:44.993Z,2.37
2018-04-15T08:23:12.514Z,2.10
2018-04-15T08:25:40.092Z,1.70
2018-04-15T08:28:07.646Z,1.60
2018-04-15T08:30:35.160Z,1.30
2018-04-15T08:33:02.710Z,1.40
2018-04-15T08:35:30.534Z,1.30
2018-04-15T08:37:58.067Z,1.73
2018-04-15T08:40:25.603Z,1.67
2018-04-15T08:42:53.142Z,1.70
2018-04-15T08:45:20.674Z,1.93
2018-04-15T08:47:48.169Z,2.20
2018-04-15T08:50:15.699Z,2.00
2018-04-15T08:52:43.194Z,1.60
2018-04-15T08:55:10.721Z,1.87
2018-04-15T08:57:38.274Z,2.30
2018-04-15T09:00:05.781Z,2.23
2018-04-15T09:02:33.247Z,2.00
2018-04-15T09:05:00.774Z,1.97
2018-04-15T09:07:28.252Z,2.20
2018-04-15T09:09:55.761Z,2.10
2018-04-15T09:12:23.215Z,1.90
2018-04-15T09:14:50.716Z,1.60
2018-04-15T09:17:18.225Z,1.80
2018-04-15T09:19:45.957Z,2.00
2018-04-15T09:22:13.438Z,2.40
2018-04-15T09:24:40.920Z,2.17
2018-04-15T09:27:08.406Z,1.47
2018-04-15T09:29:35.905Z,1.60
2018-04-15T09:32:03.381Z,1.60
2018-04-15T09:34:30.849Z,1.90
2018-04-15T09:36:58.336Z,1.53
2018-04-15T09:39:25.790Z,1.53
2018-04-15T09:41:53.271Z,1.77
2018-04-15T09:44:20.738Z,1.53
2018-04-15T09:46:48.319Z,1.80
2018-04-15T09:49:15.781Z,1.70
2018-04-15T09:51:43.273Z,1.50
2018-04-15T09:54:10.730Z,1.80
2018-04-15T09:56:38.205Z,1.50
2018-04-15T09:59:05.663Z,1.93
2018-04-15T10:01:33.145Z,1.57
2018-04-15T10:04:00.677Z,1.27
2018-04-15T10:06:28.177Z,1.20
2018-04-15T10:08:55.638Z,1.60
2018-04-15T10:11:23.120Z,1.50
2018-04-15T10:13:50.587Z,1.70
2018-04-15T10:16:18.065Z,1.50
2018-04-15T10:18:45.527Z,1.57
2018-04-15T10:21:13.038Z,1.53
2018-04-15T10:23:40.547Z,1.50
2018-04-15T10:26:08.036Z,1.50
2018-04-15T10:28:35.498Z,1.30
2018-04-15T10:31:02.984Z,1.47
2018-04-15T10:33:30.437Z,1.40
2018-04-15T10:35:57.914Z,1.27
2018-04-15T10:38:25.373Z,1.07
2018-04-15T10:40:52.864Z,1.10
2018-04-15T10:43:20.346Z,1.50
2018-04-15T10:45:47.821Z,1.47
2018-04-15T10:48:15.293Z,1.10
2018-04-15T10:50:42.774Z,1.27
2018-04-15T10:53:10.238Z,1.00
2018-04-15T10:55:37.726Z,1.40
2018-04-15T10:58:05.196Z,1.40
2018-04-15T11:00:32.658Z,1.20
2018-04-15T11:03:00.153Z,1.40
2018-04-15T11:05:27.625Z,0.93
2018-04-15T11:07:55.110Z,1.40
2018-04-15T11:10:22.585Z,1.43
2018-04-15T11:12:50.063Z,1.00
2018-04-15T11:15:17.531Z,1.10
2018-04-15T11:17:45.022Z,1.53
2018-04-15T11:20:12.483Z,1.50
2018-04-15T11:22:39.974Z,1.37
2018-04-15T11:25:07.425Z,1.10
2018-04-15T11:27:34.907Z,1.40
2018-04-15T11:30:02.369Z,1.30
2018-04-15T11:32:29.863Z,1.10
2018-04-15T11:34:57.335Z,1.20
2018-04-15T11:37:24.809Z,1.30
2018-04-15T11:39:52.266Z,1.83
2018-04-15T11:42:19.757Z,1.50
2018-04-15T11:44:47.213Z,1.70
2018-04-15T11:47:14.702Z,1.30
2018-04-15T11:49:42.169Z,1.07
2018-04-15T11:52:09.657Z,1.43
2018-04-15T11:54:37.118Z,1.30
2018-04-15T11:57:04.619Z,1.50
2018-04-15T11:59:32.085Z,1.53
2018-04-15T12:01:59.568Z,1.40
2018-04-15T12:04:27.030Z,1.40
2018-04-15T12:06:54.517Z,1.23
2018-04-15T12:09:21.986Z,1.67
2018-04-15T12:11:49.491Z,1.47
2018-04-15T12:14:16.951Z,1.50
2018-04-15T12:16:44.456Z,1.80
2018-04-15T12:19:11.940Z,1.43
2018-04-15T12:21:39.423Z,1.47
2018-04-15T12:24:06.895Z,1.30
2018-04-15T12:26:34.383Z,1.57
2018-04-15T12:29:01.862Z,1.00
2018-04-15T12:31:29.326Z,1.47
2018-04-15T12:33:56.897Z,1.27
2018-04-15T12:36:24.383Z,1.70
2018-04-15T12:38:51.869Z,1.40
2018-04-15T12:41:19.324Z,1.30
2018-04-15T12:43:46.845Z,1.60
2018-04-15T12:46:14.301Z,1.50
2018-04-15T12:48:41.786Z,1.30
2018-04-15T12:51:09.254Z,1.33
2018-04-15T12:53:36.773Z,1.23
2018-04-15T12:56:04.259Z,1.73
2018-04-15T12:58:31.743Z,1.60
2018-04-15T13:00:59.213Z,1.50
2018-04-15T13:03:26.697Z,2.23
2018-04-15T13:05:54.206Z,1.27
2018-04-15T13:08:21.687Z,1.27
2018-04-15T13:10:49.142Z,1.10
2018-04-15T13:13:16.630Z,1.60
2018-04-15T13:15:44.081Z,1.30
2018-04-15T13:18:11.574Z,1.63
2018-04-15T13:20:39.037Z,1.60
2018-04-15T13:23:06.531Z,1.63
2018-04-15T13:25:33.985Z,1.20
2018-04-15T13:28:01.470Z,1.27
2018-04-15T13:30:28.934Z,1.60
2018-04-15T13:32:56.410Z,1.40
2018-04-15T13:35:23.880Z,1.40
2018-04-15T13:37:51.364Z,1.30
2018-04-15T13:40:18.899Z,1.27
2018-04-15T13:42:46.374Z,1.48
2018-04-15T13:45:14.186Z,1.50
2018-04-15T13:47:41.669Z,1.67
2018-04-15T13:50:09.159Z,1.37
2018-04-15T13:52:36.632Z,1.45
2018-04-15T13:55:04.140Z,0.95
2018-04-15T13:57:31.597Z,1.35
2018-04-15T13:59:59.229Z,1.25
2018-04-15T14:02:26.702Z,1.33
2018-04-15T14:04:54.188Z,1.37
2018-04-15T14:07:21.653Z,1.58
2018-04-15T14:09:49.134Z,2.97
2018-04-15T14:12:16.606Z,1.65
2018-04-15T14:14:44.099Z,1.25
2018-04-15T14:17:11.561Z,1.50
2018-04-15T14:19:39.042Z,2.20
2018-04-15T14:22:06.527Z,1.80
2018-04-15T14:24:34.009Z,2.40
2018-04-15T14:27:01.484Z,1.80
2018-04-15T14:29:28.961Z,1.47
2018-04-15T14:31:56.436Z,1.97
2018-04-15T14:34:23.934Z,2.40
2018-04-15T14:36:51.402Z,1.43
2018-04-15T14:39:18.887Z,2.37
2018-04-15T14:41:46.430Z,1.40
2018-04-15T14:44:13.960Z,1.57
2018-04-15T14:46:41.447Z,1.53
2018-04-15T14:49:09.170Z,1.67
2018-04-15T14:51:36.653Z,1.43
2018-04-15T14:54:04.131Z,1.50
2018-04-15T14:56:31.634Z,1.20
2018-04-15T14:58:59.116Z,1.17
2018-04-15T15:01:26.605Z,1.30
2018-04-15T15:03:54.096Z,1.47
2018-04-15T15:06:21.560Z,5.13
2018-04-15T15:08:49.037Z,1.40
2018-04-15T15:11:16.497Z,1.60
2018-04-15T15:13:43.994Z,1.50
2018-04-15T15:16:11.549Z,3.20
2018-04-15T15:18:39.018Z,3.30
2018-04-15T15:21:06.512Z,17.57
2018-04-15T15:23:33.988Z,2.73
2018-04-15T15:26:01.498Z,5.00
2018-04-15T15:28:29.016Z,1.73
2018-04-15T15:30:56.478Z,1.97
2018-04-15T15:33:23.951Z,2.00
2018-04-15T15:35:51.462Z,1.23
2018-04-15T15:38:18.928Z,1.27
2018-04-15T15:40:46.422Z,1.23
2018-04-15T15:43:13.886Z,1.70
2018-04-15T15:45:41.366Z,1.67
2018-04-15T15:48:08.886Z,1.60
2018-04-15T15:50:36.369Z,1.57
2018-04-15T15:53:03.828Z,1.77
2018-04-15T15:55:31.301Z,2.10
2018-04-15T15:57:58.760Z,2.00
2018-04-15T16:00:26.258Z,1.77
2018-04-15T16:02:53.721Z,2.63
2018-04-15T16:05:21.212Z,2.70
2018-04-15T16:07:48.669Z,3.90
2018-04-15T16:10:17.019Z,1.97
2018-04-15T16:12:44.485Z,2.50
2018-04-15T16:15:11.970Z,2.33
2018-04-15T16:17:39.420Z,2.73
2018-04-15T16:20:06.901Z,2.90
2018-04-15T16:22:34.365Z,2.70
2018-04-15T16:25:01.845Z,1.87
2018-04-15T16:27:29.318Z,1.70
2018-04-15T16:29:56.802Z,2.43
2018-04-15T16:32:24.265Z,2.50
2018-04-15T16:34:52.349Z,1.63
2018-04-15T16:37:20.961Z,2.40
2018-04-15T16:39:50.956Z,1.90
2018-04-15T16:42:18.414Z,2.10
2018-04-15T16:44:45.872Z,2.10
2018-04-15T16:47:13.601Z,2.30
2018-04-15T16:49:41.373Z,2.50
2018-04-15T16:52:08.862Z,2.53
2018-04-15T16:54:36.317Z,3.43
2018-04-15T16:57:03.797Z,4.37
2018-04-15T16:59:31.259Z,3.53
2018-04-15T17:01:58.813Z,2.60
2018-04-15T17:04:26.266Z,3.03
2018-04-15T17:06:53.761Z,2.67
2018-04-15T17:09:21.217Z,2.83
2018-04-15T17:11:48.707Z,2.40
2018-04-15T17:14:16.165Z,2.10
2018-04-15T17:16:43.651Z,2.07
2018-04-15T17:19:11.113Z,2.57
2018-04-15T17:21:39.202Z,2.37
2018-04-15T17:24:07.043Z,2.70
2018-04-15T17:26:34.719Z,2.50
2018-04-15T17:29:02.381Z,2.10
2018-04-15T17:31:30.026Z,2.33
2018-04-15T17:33:57.630Z,2.53
2018-04-15T17:36:25.149Z,2.80
2018-04-15T17:38:52.613Z,2.30
2018-04-15T17:41:20.149Z,2.30
2018-04-15T17:43:47.677Z,3.80
2018-04-15T17:46:15.158Z,4.00
2018-04-15T17:48:42.647Z,3.20
2018-04-15T17:51:10.110Z,2.80
2018-04-15T17:53:37.602Z,2.50
2018-04-15T17:56:05.062Z,2.80
2018-04-15T17:58:32.533Z,4.20
2018-04-15T18:00:59.998Z,5.33
2018-04-15T18:03:27.490Z,5.53
2018-04-15T18:05:54.953Z,4.53
2018-04-15T18:08:22.431Z,4.03
2018-04-15T18:10:49.896Z,4.47
2018-04-15T18:13:17.379Z,4.23
2018-04-15T18:15:44.834Z,4.57
2018-04-15T18:18:12.315Z,3.50
2018-04-15T18:20:39.771Z,3.23
2018-04-15T18:23:07.229Z,2.87
2018-04-15T18:25:34.713Z,2.93
2018-04-15T18:28:02.177Z,2.40
2018-04-15T18:30:29.661Z,2.50
2018-04-15T18:32:57.119Z,2.77
2018-04-15T18:35:24.602Z,2.60
2018-04-15T18:37:52.063Z,2.20
2018-04-15T18:40:19.554Z,2.47
2018-04-15T18:42:47.013Z,2.53
2018-04-15T18:45:14.507Z,2.33
2018-04-15T18:47:41.978Z,2.60
2018-04-15T18:50:09.517Z,2.50
2018-04-15T18:52:36.948Z,2.50
2018-04-15T18:55:04.422Z,2.57
2018-04-15T18:57:31.883Z,2.57
2018-04-15T18:59:59.369Z,2.50
2018-04-15T19:02:26.830Z,2.40
2018-04-15T19:04:54.306Z,2.20
2018-04-15T19:07:21.761Z,2.67
2018-04-15T19:09:49.257Z,3.03
2018-04-15T19:12:16.748Z,3.53
2018-04-15T19:14:44.229Z,3.83
2018-04-15T19:17:11.703Z,3.63
2018-04-15T19:19:39.193Z,3.63
2018-04-15T19:22:06.667Z,3.80
2018-04-15T19:24:34.142Z,3.33
2018-04-15T19:27:01.603Z,3.20
2018-04-15T19:29:29.090Z,2.80
2018-04-15T19:31:56.550Z,3.33
2018-04-15T19:34:24.037Z,2.83
2018-04-15T19:36:51.547Z,2.80
2018-04-15T19:39:19.025Z,2.97
2018-04-15T19:41:46.568Z,3.00
2018-04-15T19:44:14.065Z,3.20
2018-04-15T19:46:41.524Z,2.80
2018-04-15T19:49:09.011Z,2.97
2018-04-15T19:51:36.488Z,3.77
2018-04-15T19:54:03.977Z,3.47
2018-04-15T19:56:31.450Z,3.43
2018-04-15T19:58:58.935Z,3.13
2018-04-15T20:01:26.396Z,3.07
2018-04-15T20:03:53.873Z,3.10
2018-04-15T20:06:21.330Z,3.57
2018-04-15T20:08:48.813Z,3.13
2018-04-15T20:11:16.289Z,3.00
2018-04-15T20:13:43.797Z,3.00
2018-04-15T20:16:11.283Z,3.27
2018-04-15T20:18:38.758Z,3.90
2018-04-15T20:21:06.298Z,3.77
2018-04-15T20:23:33.795Z,3.80
2018-04-15T20:26:01.292Z,3.77
2018-04-15T20:28:28.762Z,4.10
2018-04-15T20:30:56.247Z,4.40
2018-04-15T20:33:23.705Z,4.60
2018-04-15T20:35:51.185Z,4.60
2018-04-15T20:38:18.670Z,4.70
2018-04-15T20:40:46.154Z,4.43
2018-04-15T20:43:13.618Z,4.57
2018-04-15T20:45:41.106Z,4.90
2018-04-15T20:48:08.566Z,4.37
2018-04-15T20:50:36.055Z,4.37
2018-04-15T20:53:03.515Z,4.27
2018-04-15T20:55:30.993Z,4.47
2018-04-15T20:57:58.482Z,4.70
2018-04-15T21:00:26.020Z,4.57
2018-04-15T21:02:53.482Z,4.80
2018-04-15T21:05:21.005Z,5.10
2018-04-15T21:07:48.483Z,5.27
2018-04-15T21:10:15.973Z,5.20
2018-04-15T21:12:43.432Z,5.00
2018-04-15T21:15:10.915Z,5.30
2018-04-15T21:17:38.369Z,5.10
2018-04-15T21:20:05.863Z,5.30
2018-04-15T21:22:33.326Z,4.60
2018-04-15T21:25:00.824Z,4.27
2018-04-15T21:27:28.298Z,4.60
2018-04-15T21:29:55.773Z,4.50
2018-04-15T21:32:23.230Z,4.67
2018-04-15T21:34:50.705Z,4.47
2018-04-15T21:37:18.166Z,4.43
2018-04-15T21:39:45.657Z,4.63
2018-04-15T21:42:13.113Z,4.43
2018-04-15T21:44:41.538Z,4.80
2018-04-15T21:47:09.046Z,4.70
2018-04-15T21:49:36.530Z,4.80
2018-04-15T21:52:03.994Z,5.53
2018-04-15T21:54:31.478Z,5.00
2018-04-15T21:56:58.949Z,5.57
2018-04-15T21:59:26.426Z,5.43
2018-04-15T22:01:53.877Z,5.27
2018-04-15T22:04:21.369Z,5.07
2018-04-15T22:06:48.831Z,5.17
2018-04-15T22:09:16.297Z,5.23
2018-04-15T22:11:55.552Z,5.57
2018-04-15T22:14:23.056Z,5.07
2018-04-15T22:16:50.513Z,5.07
2018-04-15T22:19:18.006Z,5.10
2018-04-15T22:21:45.469Z,4.93
2018-04-15T22:24:12.969Z,4.60
2018-04-15T22:26:40.421Z,4.60
2018-04-15T22:29:07.901Z,5.03
2018-04-15T22:31:35.361Z,5.00
2018-04-15T22:34:02.818Z,5.20
2018-04-15T22:36:30.299Z,4.50
2018-04-15T22:38:57.773Z,4.80
2018-04-15T22:41:25.247Z,5.30
2018-04-15T22:43:52.710Z,5.00
2018-04-15T22:46:20.186Z,4.60
2018-04-15T22:48:47.643Z,4.60
2018-04-15T22:51:15.133Z,5.00
2018-04-15T22:53:42.586Z,5.50
2018-04-15T22:56:10.066Z,5.20
2018-04-15T22:58:43.146Z,5.20
2018-04-15T23:01:10.618Z,5.77
2018-04-15T23:03:38.070Z,5.17
2018-04-15T23:06:05.560Z,4.93
2018-04-15T23:08:33.014Z,5.20
2018-04-15T23:11:00.490Z,4.97
2018-04-15T23:13:27.950Z,4.77
2018-04-15T23:15:55.460Z,4.90
2018-04-15T23:18:22.914Z,4.97
2018-04-15T23:20:50.391Z,4.40
2018-04-15T23:23:17.862Z,4.43
2018-04-15T23:25:45.353Z,4.77
2018-04-15T23:28:12.817Z,4.57
2018-04-15T23:30:40.289Z,4.50
2018-04-15T23:33:07.748Z,4.37
2018-04-15T23:35:35.233Z,5.07
2018-04-15T23:38:02.726Z,4.37
2018-04-15T23:40:30.213Z,4.93
2018-04-15T23:42:57.670Z,5.37
2018-04-15T23:45:25.169Z,4.90
2018-04-15T23:47:52.628Z,5.43
2018-04-15T23:50:20.135Z,6.10
2018-04-15T23:52:47.596Z,5.10
2018-04-15T23:55:15.087Z,5.20
2018-04-15T23:57:42.555Z,4.80
